Time;durP1;ratioP1;P1;durP2;ratioP2;P2;SDS_P1;SDS_P2;PMS_P1;PMS_P2;Temp;Humidity;BMP_temperature;BMP_pressure;BME280_temperature;BME280_humidity;BME280_pressure;Samples;Min_cycle;Max_cycle;Signal;HPM_P1;HPM_P2
2021/11/30 00:00:00;;;;;;;5.30;2.33;;;;;;;18.65;37.05;101046.47;5097601;28;20032;-66
2021/11/30 00:02:25;;;;;;;5.85;2.30;;;;;;;18.63;37.14;101037.84;5097560;28;20335;-66
2021/11/30 00:04:50;;;;;;;6.28;2.40;;;;;;;18.61;36.96;101030.03;5097303;28;20490;-66
2021/11/30 00:07:16;;;;;;;7.30;2.78;;;;;;;18.58;36.83;101027.66;5096215;28;20073;-66
2021/11/30 00:12:16;;;;;;;7.13;2.40;;;;;;;18.56;36.91;101032.19;5096017;28;20380;-66
2021/11/30 00:14:44;;;;;;;7.10;2.60;;;;;;;18.55;36.90;101019.13;5095596;28;20016;-65
2021/11/30 00:17:11;;;;;;;6.53;2.60;;;;;;;18.52;36.66;101027.28;5094952;28;20047;-66
2021/11/30 00:19:36;;;;;;;6.45;2.83;;;;;;;18.51;37.03;101022.97;5095864;28;20028;-66
2021/11/30 00:22:03;;;;;;;5.60;2.40;;;;;;;18.49;36.85;101031.03;5095488;28;20032;-66
2021/11/30 00:24:30;;;;;;;5.75;2.58;;;;;;;18.45;36.97;101014.59;5094730;28;20443;-66
2021/11/30 00:26:56;;;;;;;7.25;2.95;;;;;;;18.45;36.73;101022.50;5095321;28;20031;-66
2021/11/30 00:29:22;;;;;;;5.55;2.30;;;;;;;18.39;36.77;101015.09;5095445;28;20488;-66
2021/11/30 00:31:47;;;;;;;5.75;2.20;;;;;;;18.42;36.96;101013.97;5094256;28;20024;-65
2021/11/30 00:34:12;;;;;;;5.43;2.40;;;;;;;18.40;36.75;101008.81;5095585;28;20040;-67
2021/11/30 00:36:38;;;;;;;5.22;2.17;;;;;;;18.37;36.42;100998.50;5094517;28;20051;-65
2021/11/30 00:39:04;;;;;;;5.53;2.83;;;;;;;18.36;36.54;100996.84;5094954;28;20440;-66
2021/11/30 00:41:29;;;;;;;4.30;2.25;;;;;;;18.36;36.74;100986.31;5095325;28;20016;-65
2021/11/30 00:43:55;;;;;;;5.07;2.00;;;;;;;18.33;36.33;100989.19;5093937;28;20020;-65
2021/11/30 00:46:33;;;;;;;4.50;2.25;;;;;;;18.32;36.60;100990.13;5094914;28;20028;-66
2021/11/30 00:48:59;;;;;;;5.22;2.42;;;;;;;18.30;36.22;100979.69;5094613;28;20031;-66
2021/11/30 00:51:24;;;;;;;6.10;2.20;;;;;;;18.28;36.33;100965.81;5094185;28;20115;-66
2021/11/30 00:53:51;;;;;;;5.80;2.17;;;;;;;18.27;36.23;100966.75;5094623;28;20477;-65
2021/11/30 00:56:17;;;;;;;7.00;2.40;;;;;;;18.26;36.68;100965.09;5094791;28;20471;-66
2021/11/30 00:58:46;;;;;;;4.75;2.40;;;;;;;18.23;36.53;100940.75;5093537;28;20039;-66
2021/11/30 01:01:12;;;;;;;5.80;2.47;;;;;;;18.23;36.49;100946.00;5094605;28;20075;-66
2021/11/30 01:03:38;;;;;;;5.45;2.08;;;;;;;18.22;36.29;100942.56;5094876;28;20067;-67
2021/11/30 01:06:04;;;;;;;6.05;2.30;;;;;;;18.20;36.23;100936.56;5093722;28;20103;-66
2021/11/30 01:08:29;;;;;;;5.00;2.15;;;;;;;18.20;36.55;100940.97;5094682;28;20460;-66
2021/11/30 01:10:54;;;;;;;5.25;2.22;;;;;;;18.19;36.18;100947.25;5094261;28;20531;-66
2021/11/30 01:13:20;;;;;;;4.75;2.00;;;;;;;18.15;36.26;100936.09;5093598;28;20058;-66
2021/11/30 01:15:48;;;;;;;4.40;1.95;;;;;;;18.16;36.65;100937.75;5094018;28;20113;-66
2021/11/30 01:18:14;;;;;;;5.03;2.22;;;;;;;18.13;36.67;100932.72;5094715;28;20047;-66
2021/11/30 01:20:39;;;;;;;4.85;2.17;;;;;;;18.13;36.67;100927.44;5093385;28;20028;-67
2021/11/30 01:23:06;;;;;;;5.93;2.10;;;;;;;18.11;36.20;100921.47;5094413;28;20084;-66
2021/11/30 01:25:33;;;;;;;5.95;2.33;;;;;;;18.09;36.73;100916.31;5094275;28;20097;-65
2021/11/30 01:27:58;;;;;;;5.05;2.20;;;;;;;18.09;36.17;100918.13;5091713;28;20030;-65
2021/11/30 01:30:24;;;;;;;6.43;2.05;;;;;;;18.07;36.65;100923.53;5094299;28;20020;-65
2021/11/30 01:32:49;;;;;;;5.13;2.00;;;;;;;18.05;36.31;100917.50;5092896;28;20082;-65
2021/11/30 01:35:17;;;;;;;4.53;2.00;;;;;;;18.03;36.21;100918.59;5094018;28;20383;-65
2021/11/30 01:37:43;;;;;;;5.13;1.90;;;;;;;18.03;36.50;100919.44;5093767;28;20023;-65
2021/11/30 01:40:11;;;;;;;4.45;1.98;;;;;;;18.00;36.13;100911.78;5093153;28;20046;-67
2021/11/30 01:42:42;;;;;;;4.85;1.90;;;;;;;17.99;36.57;100915.38;5093920;28;20165;-67
2021/11/30 01:45:10;;;;;;;4.25;1.73;;;;;;;17.99;36.08;100923.28;5093996;28;20031;-67
2021/11/30 01:47:52;;;;;;;5.03;2.00;;;;;;;17.96;36.41;100923.53;5093245;28;20036;-66
2021/11/30 01:50:17;;;;;;;3.50;1.60;;;;;;;17.96;36.41;100920.91;5093877;28;20030;-66
2021/11/30 01:52:46;;;;;;;3.50;1.48;;;;;;;17.95;36.76;100914.78;5093478;28;20107;-67
2021/11/30 01:55:13;;;;;;;4.10;2.00;;;;;;;17.97;36.55;100909.38;5092995;28;20065;-67
2021/11/30 01:57:39;;;;;;;4.68;1.80;;;;;;;17.95;36.55;100895.47;5093796;28;20020;-65
2021/11/30 02:00:06;;;;;;;4.40;2.10;;;;;;;17.96;36.80;100884.00;5093583;28;20043;-66
2021/11/30 02:02:31;;;;;;;5.38;1.88;;;;;;;17.98;36.42;100876.78;5092965;28;20099;-66
2021/11/30 02:04:56;;;;;;;5.13;1.88;;;;;;;17.99;36.33;100864.44;5093199;28;20612;-66
2021/11/30 02:07:22;;;;;;;4.38;1.75;;;;;;;18.00;36.16;100868.75;5093437;28;20027;-66
2021/11/30 02:09:47;;;;;;;4.40;2.05;;;;;;;18.00;36.21;100866.94;5092302;28;20047;-66
2021/11/30 02:12:12;;;;;;;4.07;1.73;;;;;;;18.00;36.70;100856.41;5093505;28;20032;-66
2021/11/30 02:14:39;;;;;;;5.03;2.00;;;;;;;18.00;36.25;100847.66;5093378;28;20016;-66
2021/11/30 02:17:08;;;;;;;4.32;1.55;;;;;;;18.01;36.43;100844.03;5092530;28;20071;-66
2021/11/30 02:19:41;;;;;;;3.97;1.80;;;;;;;18.02;36.61;100845.72;5093274;28;20067;-66
2021/11/30 02:22:11;;;;;;;4.43;1.95;;;;;;;18.00;36.40;100827.38;5092799;28;20043;-66
2021/11/30 02:24:36;;;;;;;4.75;1.90;;;;;;;18.00;36.28;100823.91;5093360;28;20111;-66
2021/11/30 02:27:02;;;;;;;5.35;2.00;;;;;;;18.00;36.33;100819.47;5092337;28;20444;-66
2021/11/30 02:29:27;;;;;;;4.15;1.65;;;;;;;17.99;36.13;100823.09;5092717;28;20038;-66
2021/11/30 02:31:52;;;;;;;4.10;1.70;;;;;;;18.00;36.33;100808.09;5092683;28;20051;-66
2021/11/30 02:34:18;;;;;;;3.80;1.70;;;;;;;17.98;36.37;100810.88;5092961;28;20036;-66
2021/11/30 02:39:16;;;;;;;5.63;1.90;;;;;;;17.98;36.48;100784.50;5093123;28;20027;-66
2021/11/30 02:41:43;;;;;;;4.75;2.08;;;;;;;17.97;36.08;100785.44;5108244;28;20047;-66
2021/11/30 02:44:11;;;;;;;5.07;1.88;;;;;;;17.97;36.18;100776.72;5092132;28;20044;-66
2021/11/30 02:46:38;;;;;;;4.45;1.90;;;;;;;17.94;36.12;100770.72;5092759;28;20016;-67
2021/11/30 02:49:07;;;;;;;4.03;1.63;;;;;;;17.94;36.33;100764.59;5092510;28;20040;-67
2021/11/30 02:51:33;;;;;;;5.55;1.92;;;;;;;17.95;36.42;100766.28;5091823;28;20484;-66
2021/11/30 02:54:01;;;;;;;5.00;1.90;;;;;;;17.95;36.59;100755.72;5092542;28;20072;-66
2021/11/30 02:56:28;;;;;;;3.80;1.65;;;;;;;17.95;36.42;100761.84;5092850;28;20021;-66
2021/11/30 02:58:54;;;;;;;4.45;2.15;;;;;;;17.97;36.25;100763.53;5091592;28;20020;-66
2021/11/30 03:01:19;;;;;;;4.20;1.80;;;;;;;17.95;36.37;100764.47;5092532;28;20078;-67
2021/11/30 03:03:44;;;;;;;4.03;1.60;;;;;;;17.97;36.65;100750.34;5092146;28;20036;-66
2021/11/30 03:06:10;;;;;;;4.45;1.83;;;;;;;17.95;36.24;100746.00;5091868;28;20035;-65
2021/11/30 03:08:40;;;;;;;4.35;2.00;;;;;;;17.96;36.57;100744.25;5092650;28;20024;-66
2021/11/30 03:11:07;;;;;;;4.28;1.70;;;;;;;17.96;36.62;100728.41;5092552;28;20107;-65
2021/11/30 03:13:33;;;;;;;4.35;1.85;;;;;;;17.95;36.65;100730.19;5090414;28;20062;-66
2021/11/30 03:15:58;;;;;;;4.43;1.85;;;;;;;17.94;36.58;100725.91;5091873;28;20064;-66
2021/11/30 03:18:23;;;;;;;3.30;1.60;;;;;;;17.95;36.70;100722.28;5091543;28;20488;-65
2021/11/30 03:20:49;;;;;;;4.32;1.83;;;;;;;17.93;36.43;100718.13;5092171;28;20020;-66
2021/11/30 03:23:14;;;;;;;3.60;1.65;;;;;;;17.94;36.72;100715.34;5092306;28;20375;-66
2021/11/30 03:25:42;;;;;;;3.75;1.70;;;;;;;17.93;36.57;100713.69;5091028;28;20059;-66
2021/11/30 03:28:08;;;;;;;4.15;1.85;;;;;;;17.92;36.45;100721.72;5092280;28;20028;-65
2021/11/30 03:30:36;;;;;;;4.57;1.75;;;;;;;17.93;36.91;100712.84;5092349;28;20193;-67
2021/11/30 03:35:45;;;;;;;3.60;1.67;;;;;;;17.92;36.73;100709.34;5092209;28;20089;-66
2021/11/30 03:38:10;;;;;;;3.47;1.50;;;;;;;17.93;36.70;100704.94;5092112;28;20020;-66
2021/11/30 03:40:36;;;;;;;3.97;1.55;;;;;;;17.92;36.98;100698.81;5095303;28;20375;-66
2021/11/30 03:43:01;;;;;;;3.92;1.45;;;;;;;17.95;36.86;100705.63;5095911;28;20020;-66
2021/11/30 03:45:26;;;;;;;2.67;1.33;;;;;;;17.94;37.08;100681.09;5096106;28;20433;-66
2021/11/30 03:47:52;;;;;;;3.00;1.25;;;;;;;17.97;37.17;100681.78;5095240;28;20028;-66
2021/11/30 03:50:17;;;;;;;3.28;1.60;;;;;;;17.95;36.90;100677.47;5096234;28;20016;-66
2021/11/30 03:52:42;;;;;;;4.47;1.58;;;;;;;17.97;36.97;100673.88;5095654;28;20483;-67
2021/11/30 03:55:08;;;;;;;3.05;1.25;;;;;;;17.97;36.89;100677.34;5095526;28;20028;-66
2021/11/30 03:57:33;;;;;;;3.58;1.70;;;;;;;17.97;36.96;100672.06;5096154;28;20032;-66
2021/11/30 03:59:59;;;;;;;4.07;1.67;;;;;;;17.95;37.06;100661.66;5095537;28;20123;-66
2021/11/30 04:02:24;;;;;;;2.80;1.27;;;;;;;17.97;37.06;100664.16;5095371;28;20205;-66
2021/11/30 04:04:50;;;;;;;3.15;1.50;;;;;;;17.97;36.95;100664.16;5095653;28;20028;-66
2021/11/30 04:07:16;;;;;;;3.20;1.23;;;;;;;17.97;37.21;100656.25;5095634;28;20383;-66
2021/11/30 04:09:42;;;;;;;3.08;1.48;;;;;;;17.98;37.21;100670.28;5094683;28;20107;-65
2021/11/30 04:12:08;;;;;;;3.55;1.50;;;;;;;17.98;37.48;100662.38;5095451;28;20020;-66
2021/11/30 04:14:36;;;;;;;2.75;1.38;;;;;;;17.98;37.29;100660.56;5094914;28;20043;-66
2021/11/30 04:17:02;;;;;;;3.17;1.50;;;;;;;17.99;37.11;100662.25;5095312;28;20048;-65
2021/11/30 04:19:27;;;;;;;3.05;1.40;;;;;;;18.00;37.35;100660.44;5095899;28;20088;-66
2021/11/30 04:21:53;;;;;;;3.72;1.52;;;;;;;18.01;37.23;100654.19;5094690;28;20543;-65
2021/11/30 04:24:18;;;;;;;3.28;1.60;;;;;;;18.00;37.17;100656.00;5095596;28;20032;-66
2021/11/30 04:26:43;;;;;;;2.75;1.30;;;;;;;18.01;37.08;100648.91;5095066;28;20093;-66
2021/11/30 04:29:09;;;;;;;3.35;1.50;;;;;;;18.01;37.29;100643.63;5094730;28;20157;-66
2021/11/30 04:31:35;;;;;;;3.33;1.38;;;;;;;18.00;37.54;100640.16;5095366;28;20328;-65
2021/11/30 04:34:03;;;;;;;2.70;1.20;;;;;;;18.00;37.52;100639.34;5095308;28;20081;-66
2021/11/30 04:36:28;;;;;;;2.95;1.50;;;;;;;18.00;37.32;100648.06;5094735;28;20444;-65
2021/11/30 04:38:56;;;;;;;2.88;1.40;;;;;;;18.01;37.80;100647.13;5094829;28;20028;-66
2021/11/30 04:41:22;;;;;;;2.35;1.23;;;;;;;18.00;37.44;100650.72;5095208;28;20498;-66
2021/11/30 04:43:47;;;;;;;3.00;1.50;;;;;;;18.00;37.86;100629.63;5094081;28;20135;-65
2021/11/30 04:46:19;;;;;;;2.43;1.23;;;;;;;18.02;37.87;100645.31;5095106;28;20115;-67
2021/11/30 04:48:56;;;;;;;3.85;1.35;;;;;;;18.03;37.84;100636.44;5094783;28;20394;-66
2021/11/30 04:51:22;;;;;;;3.42;1.27;;;;;;;18.03;37.80;100633.81;5093814;28;20097;-66
2021/11/30 04:53:48;;;;;;;3.35;1.23;;;;;;;18.03;38.10;100628.53;5094489;28;20024;-67
2021/11/30 04:56:15;;;;;;;2.80;1.35;;;;;;;18.04;37.63;100628.41;5094591;28;20058;-66
2021/11/30 04:58:41;;;;;;;3.13;1.30;;;;;;;18.04;37.76;100614.38;5093753;28;20490;-65
2021/11/30 05:01:07;;;;;;;2.53;1.17;;;;;;;18.04;37.85;100611.72;5095573;28;20028;-65
2021/11/30 05:03:32;;;;;;;3.03;1.20;;;;;;;18.05;38.01;100623.97;5094826;28;20036;-66
2021/11/30 05:05:57;;;;;;;3.88;1.50;;;;;;;18.05;37.68;100616.06;5093676;28;20036;-66
2021/11/30 05:08:22;;;;;;;2.65;1.50;;;;;;;18.04;37.81;100609.94;5094401;28;20093;-66
2021/11/30 05:10:48;;;;;;;2.80;1.38;;;;;;;18.05;37.87;100610.78;5093753;28;20429;-65
2021/11/30 05:13:13;;;;;;;2.78;1.33;;;;;;;18.06;38.08;100609.81;5094474;28;20028;-65
2021/11/30 05:15:39;;;;;;;3.17;1.30;;;;;;;18.04;38.17;100602.03;5094473;28;20473;-67
2021/11/30 05:18:04;;;;;;;2.97;1.40;;;;;;;18.06;38.39;100601.91;5093292;28;20051;-66
2021/11/30 05:20:30;;;;;;;3.38;1.20;;;;;;;18.06;38.08;100594.00;5094102;28;20032;-65
2021/11/30 05:22:55;;;;;;;2.90;1.23;;;;;;;18.05;38.27;100601.06;5093935;28;20517;-67
2021/11/30 05:25:22;;;;;;;2.17;0.98;;;;;;;18.06;38.08;100586.91;5093390;28;20017;-66
2021/11/30 05:27:49;;;;;;;2.13;1.10;;;;;;;18.07;38.53;100588.59;5093833;28;20078;-66
2021/11/30 05:30:18;;;;;;;1.83;1.10;;;;;;;18.07;38.15;100590.38;5094036;28;20059;-66
2021/11/30 05:32:43;;;;;;;3.03;1.23;;;;;;;18.08;38.23;100590.25;5092893;28;20036;-65
2021/11/30 05:35:10;;;;;;;2.53;1.20;;;;;;;18.07;38.21;100588.59;5094127;28;20026;-66
2021/11/30 05:37:35;;;;;;;2.30;1.20;;;;;;;18.08;38.29;100592.88;5094020;28;20024;-67
2021/11/30 05:40:02;;;;;;;2.33;1.00;;;;;;;18.07;38.41;100587.75;5092656;28;20495;-66
2021/11/30 05:42:27;;;;;;;3.03;1.20;;;;;;;18.08;38.63;100584.97;5094146;28;20024;-66
2021/11/30 05:44:52;;;;;;;2.05;1.00;;;;;;;18.08;38.72;100594.69;5093668;28;20042;-67
2021/11/30 05:47:18;;;;;;;2.65;1.20;;;;;;;18.08;38.89;100600.78;5093176;28;20020;-66
2021/11/30 05:49:44;;;;;;;1.83;0.98;;;;;;;18.09;38.71;100599.84;5093347;28;20372;-66
2021/11/30 05:52:09;;;;;;;2.80;1.27;;;;;;;18.09;39.00;100605.13;5093453;28;20024;-66
2021/11/30 05:54:36;;;;;;;2.80;1.20;;;;;;;18.09;38.70;100601.66;5092754;28;20114;-66
2021/11/30 05:57:02;;;;;;;2.75;1.30;;;;;;;18.09;38.89;100599.84;5093494;28;20032;-67
2021/11/30 05:59:34;;;;;;;1.75;1.00;;;;;;;18.09;38.83;100597.19;5094008;28;20016;-66
2021/11/30 06:02:01;;;;;;;2.15;1.00;;;;;;;18.10;39.09;100593.63;5091793;28;20031;-66
2021/11/30 06:04:26;;;;;;;3.10;1.30;;;;;;;18.10;39.32;100596.25;5093712;28;20027;-66
2021/11/30 06:06:51;;;;;;;1.63;0.90;;;;;;;18.11;39.45;100592.63;5093083;28;20024;-66
2021/11/30 06:09:17;;;;;;;2.55;0.98;;;;;;;18.12;39.54;100596.94;5092418;28;20364;-66
2021/11/30 06:11:43;;;;;;;3.37;1.20;;;;;;;18.14;39.57;100602.09;5092867;28;20433;-65
2021/11/30 06:14:09;;;;;;;2.15;1.00;;;;;;;18.13;39.28;100598.63;5092636;28;20304;-65
2021/11/30 06:16:34;;;;;;;2.58;0.98;;;;;;;18.16;39.24;100599.31;5093251;28;20071;-66
2021/11/30 06:18:59;;;;;;;1.60;0.90;;;;;;;18.19;39.48;100601.69;5093113;28;20028;-66
2021/11/30 06:21:25;;;;;;;1.63;0.85;;;;;;;18.20;39.46;100601.56;5092459;28;20024;-66
2021/11/30 06:23:50;;;;;;;2.33;1.05;;;;;;;18.21;39.34;100605.84;5092771;28;20490;-67
2021/11/30 06:26:17;;;;;;;1.73;0.80;;;;;;;18.23;39.14;100603.94;5093186;28;20082;-66
2021/11/30 06:28:42;;;;;;;2.10;1.00;;;;;;;18.26;39.73;100608.09;5091898;28;20490;-65
2021/11/30 06:31:09;;;;;;;3.53;1.08;;;;;;;18.26;39.53;100600.19;5092966;28;20024;-66
2021/11/30 06:33:35;;;;;;;1.55;0.80;;;;;;;18.27;39.66;100600.06;5092798;28;20043;-66
2021/11/30 06:36:01;;;;;;;2.53;0.82;;;;;;;18.28;39.82;100598.28;5091854;28;20024;-66
2021/11/30 06:38:27;;;;;;;1.92;0.88;;;;;;;18.27;39.59;100592.16;5092844;28;20086;-67
2021/11/30 06:40:52;;;;;;;1.67;0.80;;;;;;;18.28;39.37;100598.28;5092711;28;20422;-65
2021/11/30 06:43:18;;;;;;;1.95;0.88;;;;;;;18.31;39.67;100605.94;5092102;28;20024;-66
2021/11/30 06:45:43;;;;;;;1.85;0.80;;;;;;;18.30;39.74;100598.97;5092374;28;20023;-66
2021/11/30 06:48:09;;;;;;;3.08;1.38;;;;;;;18.30;39.69;100588.44;5092768;28;20113;-66
2021/11/30 06:50:35;;;;;;;2.25;0.90;;;;;;;18.33;39.50;100603.16;5091835;28;20097;-66
2021/11/30 06:53:00;;;;;;;1.55;0.80;;;;;;;18.34;39.77;100612.72;5092252;28;20157;-66
2021/11/30 06:55:25;;;;;;;1.70;0.83;;;;;;;18.35;39.90;100602.06;5092807;28;20082;-66
2021/11/30 06:57:51;;;;;;;1.67;0.70;;;;;;;18.34;39.58;100597.75;5091773;28;20272;-67
2021/11/30 07:00:22;;;;;;;2.15;0.80;;;;;;;18.37;39.60;100605.38;5092706;28;20016;-66
2021/11/30 07:02:49;;;;;;;1.15;0.70;;;;;;;18.39;39.71;100598.19;5092491;28;20034;-66
2021/11/30 07:05:17;;;;;;;2.40;0.88;;;;;;;18.42;39.55;100603.22;5091802;28;20424;-67
2021/11/30 07:08:11;;;;;;;1.52;0.82;;;;;;;18.41;39.84;100585.69;5092063;28;20048;-67
2021/11/30 07:10:46;;;;;;;1.13;0.60;;;;;;;18.44;39.63;100584.59;5091868;28;20039;-66
2021/11/30 07:13:27;;;;;;;1.52;0.80;;;;;;;18.43;40.02;100583.75;5092404;28;20430;-66
2021/11/30 07:15:59;;;;;;;1.05;0.70;;;;;;;18.44;39.92;100595.16;5091982;28;20032;-66
2021/11/30 07:18:26;;;;;;;2.00;0.90;;;;;;;18.42;40.19;100590.00;5092181;28;20074;-68
2021/11/30 07:20:52;;;;;;;1.20;0.70;;;;;;;18.43;40.08;100580.28;5092340;28;20025;-70
2021/11/30 07:23:18;;;;;;;1.70;0.90;;;;;;;18.43;40.19;100577.66;5092695;28;20416;-69
2021/11/30 07:25:44;;;;;;;1.65;0.80;;;;;;;18.46;40.75;100583.47;5091426;28;20032;-67
2021/11/30 07:28:09;;;;;;;2.08;0.85;;;;;;;18.47;40.34;100592.25;5092315;28;20138;-67
2021/11/30 07:30:36;;;;;;;1.52;0.70;;;;;;;18.49;40.70;100583.22;5092187;28;20027;-66
2021/11/30 07:33:02;;;;;;;2.05;0.80;;;;;;;18.51;40.41;100585.72;5091340;28;20051;-66
2021/11/30 07:35:27;;;;;;;2.50;0.90;;;;;;;18.52;40.77;100583.91;5092370;28;20511;-66
2021/11/30 07:37:53;;;;;;;1.50;0.73;;;;;;;18.55;40.89;100588.94;5091744;28;20066;-68
2021/11/30 07:40:19;;;;;;;3.22;0.70;;;;;;;18.56;41.00;100594.06;5091470;28;20054;-65
2021/11/30 07:42:44;;;;;;;2.92;0.70;;;;;;;18.58;40.50;100586.03;5091893;28;20101;-63
2021/11/30 07:45:11;;;;;;;1.13;0.70;;;;;;;18.59;40.96;100592.97;5092215;28;20028;-63
2021/11/30 07:47:37;;;;;;;3.40;0.70;;;;;;;18.61;40.77;100591.03;5091566;28;20016;-64
2021/11/30 07:50:04;;;;;;;1.50;0.70;;;;;;;18.62;41.02;100587.44;5091786;28;20472;-64
2021/11/30 07:52:31;;;;;;;1.42;0.60;;;;;;;18.63;41.19;100591.75;5091962;28;20039;-68
2021/11/30 07:55:03;;;;;;;2.75;0.80;;;;;;;18.66;40.81;100599.41;5091052;28;20042;-63
2021/11/30 07:57:28;;;;;;;1.85;0.80;;;;;;;18.67;41.20;100607.19;5092015;28;20031;-66
2021/11/30 07:59:54;;;;;;;3.03;1.02;;;;;;;18.68;41.49;100611.50;5090897;28;20529;-63
2021/11/30 08:02:19;;;;;;;2.13;0.80;;;;;;;18.73;41.47;100611.09;5092066;28;20024;-65
2021/11/30 08:04:46;;;;;;;2.88;0.88;;;;;;;18.77;41.91;100615.13;5091704;28;20374;-66
2021/11/30 08:07:15;;;;;;;5.30;0.90;;;;;;;18.81;41.82;100623.63;5091263;28;20036;-67
2021/11/30 08:09:40;;;;;;;3.55;1.10;;;;;;;18.84;42.04;100607.53;5091874;28;20020;-69
2021/11/30 08:12:06;;;;;;;3.13;1.10;;;;;;;18.87;42.33;100623.13;5091643;28;20048;-69
2021/11/30 08:14:31;;;;;;;3.40;0.90;;;;;;;18.87;42.22;100620.47;5091419;28;20111;-67
2021/11/30 08:16:56;;;;;;;2.67;0.90;;;;;;;18.86;42.28;100618.78;5091621;28;20071;-68
2021/11/30 08:19:24;;;;;;;3.75;0.90;;;;;;;18.87;42.28;100623.13;5091788;28;20184;-67
2021/11/30 08:21:49;;;;;;;3.13;1.02;;;;;;;18.88;42.29;100623.94;5090885;28;20448;-68
2021/11/30 08:24:15;;;;;;;2.92;0.85;;;;;;;18.91;43.06;100636.88;5092703;28;20016;-68
2021/11/30 08:26:40;;;;;;;3.35;0.85;;;;;;;19.02;42.61;100627.03;5096615;28;20074;-67
2021/11/30 08:29:06;;;;;;;5.22;1.00;;;;;;;19.17;42.15;100627.50;5096677;28;20036;-67
2021/11/30 08:31:31;;;;;;;3.15;1.00;;;;;;;19.31;41.94;100630.69;5095972;28;20024;-67
2021/11/30 08:33:57;;;;;;;3.13;1.00;;;;;;;19.42;41.70;100621.81;5095926;28;20036;-66
2021/11/30 08:36:22;;;;;;;3.15;1.10;;;;;;;19.51;41.49;100621.81;5094831;28;20036;-67
2021/11/30 08:38:47;;;;;;;2.75;0.73;;;;;;;19.57;41.36;100620.44;5095551;28;20090;-67
2021/11/30 08:41:13;;;;;;;3.47;1.00;;;;;;;19.63;41.02;100617.22;5096822;28;20517;-67
2021/11/30 08:43:38;;;;;;;2.25;0.90;;;;;;;19.69;40.99;100621.09;5094851;28;20032;-67
2021/11/30 08:46:04;;;;;;;2.67;0.90;;;;;;;19.71;41.24;100612.06;5096415;28;20129;-68
2021/11/30 08:48:29;;;;;;;2.60;0.80;;;;;;;19.77;41.12;100612.50;5096215;28;20752;-67
2021/11/30 08:50:56;;;;;;;2.55;0.85;;;;;;;19.80;40.95;100617.50;5095042;28;20039;-67
2021/11/30 08:53:24;;;;;;;2.08;0.88;;;;;;;19.82;41.12;100615.56;5095541;28;20043;-67
2021/11/30 08:55:49;;;;;;;3.58;0.90;;;;;;;19.82;40.74;100613.75;5095844;28;20024;-68
2021/11/30 08:58:14;;;;;;;1.75;0.73;;;;;;;19.80;41.02;100605.13;5095098;28;20586;-69
2021/11/30 09:00:40;;;;;;;2.90;0.85;;;;;;;19.82;41.39;100608.47;5096932;28;20031;-69
2021/11/30 09:03:05;;;;;;;3.22;0.93;;;;;;;19.83;40.91;100607.47;5096345;28;20464;-70
2021/11/30 09:05:31;;;;;;;2.88;0.90;;;;;;;19.86;41.01;100601.09;5097033;28;20020;-68
2021/11/30 09:07:57;;;;;;;2.90;0.82;;;;;;;19.89;40.70;100609.56;5095010;28;20043;-68
2021/11/30 09:10:23;;;;;;;2.08;0.82;;;;;;;19.91;40.77;100606.78;5095344;28;20462;-67
2021/11/30 09:12:49;;;;;;;2.63;0.80;;;;;;;19.93;40.70;100602.16;5095382;28;20035;-66
2021/11/30 09:15:16;;;;;;;3.83;0.80;;;;;;;19.92;40.68;100598.69;5095558;28;20024;-67
2021/11/30 09:17:42;;;;;;;1.95;0.75;;;;;;;19.93;40.88;100595.09;5094474;28;20084;-67
2021/11/30 09:20:09;;;;;;;1.75;0.80;;;;;;;19.96;40.79;100598.41;5094936;28;20323;-69
2021/11/30 09:22:35;;;;;;;2.70;0.80;;;;;;;19.92;41.27;100603.16;5095461;28;20016;-69
2021/11/30 09:25:03;;;;;;;4.03;0.90;;;;;;;19.90;41.10;100599.81;5093928;28;20448;-70
2021/11/30 09:27:29;;;;;;;2.75;0.85;;;;;;;19.86;41.13;100601.91;5095416;28;20381;-68
2021/11/30 09:29:54;;;;;;;2.92;0.90;;;;;;;19.80;41.19;100599.00;5094433;28;20028;-69
2021/11/30 09:32:20;;;;;;;2.05;0.80;;;;;;;19.74;41.47;100608.28;5094023;28;20107;-69
2021/11/30 09:34:46;;;;;;;2.45;0.80;;;;;;;19.69;41.35;100611.38;5094071;28;20480;-70
2021/11/30 09:37:12;;;;;;;2.17;0.60;;;;;;;19.64;41.26;100603.00;5094801;28;20020;-70
2021/11/30 09:39:37;;;;;;;2.75;0.95;;;;;;;19.62;41.32;100604.97;5094145;28;20039;-71
2021/11/30 09:42:04;;;;;;;2.05;0.60;;;;;;;19.60;41.46;100608.72;5094736;28;20031;-70
2021/11/30 09:44:33;;;;;;;1.48;0.60;;;;;;;19.60;41.44;100608.72;5094754;28;20509;-72
2021/11/30 09:47:00;;;;;;;1.85;0.70;;;;;;;19.62;41.65;100606.78;5094094;28;20055;-72
2021/11/30 09:49:26;;;;;;;1.60;0.80;;;;;;;19.61;41.70;100610.41;5094954;28;20040;-72
2021/11/30 09:51:51;;;;;;;1.83;0.70;;;;;;;19.63;41.62;100616.38;5094876;28;20028;-73
2021/11/30 09:54:17;;;;;;;2.40;0.70;;;;;;;19.55;42.10;100623.22;5094519;28;20024;-72
2021/11/30 09:56:42;;;;;;;3.78;0.88;;;;;;;19.52;41.72;100628.78;5094914;28;20036;-71
2021/11/30 09:59:08;;;;;;;2.20;0.63;;;;;;;19.53;41.90;100626.94;5094980;28;20028;-71
2021/11/30 10:01:34;;;;;;;2.33;0.80;;;;;;;19.56;42.25;100630.16;5094389;28;20036;-72
2021/11/30 10:04:02;;;;;;;2.95;0.60;;;;;;;19.61;42.20;100619.16;5094781;28;20519;-71
2021/11/30 10:06:28;;;;;;;1.40;0.60;;;;;;;19.63;42.11;100627.81;5093957;28;20024;-72
2021/11/30 10:08:55;;;;;;;1.55;0.60;;;;;;;19.68;42.28;100624.75;5095276;28;20035;-68
2021/11/30 10:11:40;;;;;;;2.45;0.70;;;;;;;19.69;42.27;100621.97;5095416;28;20581;-71
2021/11/30 10:14:15;;;;;;;1.83;0.70;;;;;;;19.69;41.96;100623.75;5095278;28;20111;-72
2021/11/30 10:17:01;;;;;;;3.80;0.75;;;;;;;19.69;42.09;100626.38;5095549;28;20051;-71
2021/11/30 10:19:28;;;;;;;2.03;0.63;;;;;;;19.65;41.86;100628.50;5095581;28;20031;-72
2021/11/30 10:21:55;;;;;;;1.98;0.70;;;;;;;19.60;42.26;100643.09;5094049;28;20024;-72
2021/11/30 10:24:20;;;;;;;1.85;0.70;;;;;;;19.55;42.66;100635.56;5096525;28;20032;-69
2021/11/30 10:26:45;;;;;;;3.75;0.55;;;;;;;19.58;42.51;100636.16;5096284;28;20107;-68
2021/11/30 10:29:13;;;;;;;6.00;0.80;;;;;;;19.65;42.12;100627.66;5098511;28;20077;-70
2021/11/30 10:31:44;;;;;;;2.00;0.60;;;;;;;19.71;42.27;100635.00;5098765;28;20020;-69
2021/11/30 10:34:16;;;;;;;4.65;0.70;;;;;;;19.77;42.06;100638.94;5098948;28;20027;-73
2021/11/30 10:36:47;;;;;;;2.63;0.63;;;;;;;19.80;42.12;100631.56;5096295;28;20024;-67
2021/11/30 10:39:40;;;;;;;2.08;0.73;;;;;;;19.83;41.92;100636.56;5098400;28;20141;-66
2021/11/30 10:42:17;;;;;;;2.67;0.88;;;;;;;19.87;42.07;100640.63;5092768;28;20548;-70
2021/11/30 10:44:48;;;;;;;1.63;0.70;;;;;;;19.85;42.02;100633.78;5094824;28;20047;-69
2021/11/30 10:47:16;;;;;;;2.40;0.80;;;;;;;19.84;42.17;100634.78;5095678;28;20028;-72
2021/11/30 10:49:51;;;;;;;2.38;0.90;;;;;;;19.80;42.17;100636.03;5094976;28;20020;-70
2021/11/30 10:52:17;;;;;;;;;;;;;;;19.80;42.48;100633.38;5094820;28;20497;-68
2021/11/30 10:54:42;;;;;;;1.75;0.70;;;;;;;19.81;42.01;100627.13;5096144;28;19912;-70
2021/11/30 10:57:08;;;;;;;3.95;0.80;;;;;;;19.84;42.28;100634.78;5095056;28;20506;-72
2021/11/30 10:59:33;;;;;;;1.20;0.60;;;;;;;19.86;42.40;100640.75;5096369;28;20383;-74
2021/11/30 11:01:58;;;;;;;3.23;0.97;;;;;;;19.87;42.38;100634.50;5097837;28;20588;-73
2021/11/30 11:04:37;;;;;;;3.28;0.80;;;;;;;19.87;42.13;100635.31;5096150;28;20283;-78
2021/11/30 11:07:11;;;;;;;2.17;0.70;;;;;;;19.86;42.26;100636.28;5097864;28;20031;-77
2021/11/30 11:09:40;;;;;;;;;;;;;;;19.84;42.25;100635.59;5095041;28;20091;-71
2021/11/30 11:12:08;;;;;;;2.20;0.90;;;;;;;19.85;42.04;100641.72;5093413;28;20385;-70
2021/11/30 11:14:46;;;;;;;3.53;0.85;;;;;;;19.82;42.26;100645.50;5094518;28;20440;-68
2021/11/30 11:17:26;;;;;;;1.90;0.70;;;;;;;19.83;42.31;100636.56;5094319;28;20040;-69
2021/11/30 11:19:51;;;;;;;3.55;1.00;;;;;;;19.80;42.24;100631.56;5094669;28;20020;-72
2021/11/30 11:22:19;;;;;;;1.70;0.63;;;;;;;19.74;42.17;100637.38;5093623;28;20114;-71
2021/11/30 11:24:50;;;;;;;2.88;0.80;;;;;;;19.65;42.33;100625.84;5093350;28;20032;-71
2021/11/30 11:27:33;;;;;;;2.42;0.70;;;;;;;19.58;42.62;100630.00;5094374;28;20486;-68
2021/11/30 11:29:59;;;;;;;1.98;0.68;;;;;;;19.53;42.84;100633.06;5095636;28;20039;-69
2021/11/30 11:32:24;;;;;;;2.22;0.80;;;;;;;19.50;42.76;100632.50;5093290;28;20028;-69